sensor_id;sensor_type;location;lat;lon;timestamp;P1;durP1;ratioP1;P2;durP2;ratioP2
64795;SDS011;51229;51.980;6.722;2022-07-23T00:01:16;5.45;;;3.88;;
64795;SDS011;51229;51.980;6.722;2022-07-23T00:03:42;7.03;;;4.55;;
64795;SDS011;51229;51.980;6.722;2022-07-23T00:06:08;7.97;;;4.22;;
64795;SDS011;51229;51.980;6.722;2022-07-23T00:08:33;6.15;;;4.28;;
64795;SDS011;51229;51.980;6.722;2022-07-23T00:10:59;6.32;;;4.13;;
64795;SDS011;51229;51.980;6.722;2022-07-23T00:13:25;7.10;;;4.97;;
64795;SDS011;51229;51.980;6.722;2022-07-23T00:15:51;7.53;;;4.70;;
64795;SDS011;51229;51.980;6.722;2022-07-23T00:18:17;6.35;;;4.20;;
64795;SDS011;51229;51.980;6.722;2022-07-23T00:20:43;7.18;;;4.57;;
64795;SDS011;51229;51.980;6.722;2022-07-23T00:23:09;7.43;;;4.18;;
64795;SDS011;51229;51.980;6.722;2022-07-23T00:25:34;7.25;;;4.25;;
64795;SDS011;51229;51.980;6.722;2022-07-23T00:28:00;5.65;;;4.10;;
64795;SDS011;51229;51.980;6.722;2022-07-23T00:30:27;6.63;;;4.07;;
64795;SDS011;51229;51.980;6.722;2022-07-23T00:32:56;7.25;;;4.25;;
64795;SDS011;51229;51.980;6.722;2022-07-23T00:35:25;6.57;;;4.80;;
64795;SDS011;51229;51.980;6.722;2022-07-23T00:37:53;8.45;;;4.50;;
64795;SDS011;51229;51.980;6.722;2022-07-23T00:40:19;8.35;;;4.90;;
64795;SDS011;51229;51.980;6.722;2022-07-23T00:42:45;7.22;;;4.65;;
64795;SDS011;51229;51.980;6.722;2022-07-23T00:45:11;5.75;;;4.45;;
64795;SDS011;51229;51.980;6.722;2022-07-23T00:47:37;7.38;;;4.40;;
64795;SDS011;51229;51.980;6.722;2022-07-23T00:50:03;6.15;;;4.68;;
64795;SDS011;51229;51.980;6.722;2022-07-23T00:52:31;6.30;;;4.50;;
64795;SDS011;51229;51.980;6.722;2022-07-23T00:54:57;5.63;;;4.40;;
64795;SDS011;51229;51.980;6.722;2022-07-23T00:57:23;6.72;;;4.35;;
64795;SDS011;51229;51.980;6.722;2022-07-23T00:59:49;7.38;;;4.22;;
64795;SDS011;51229;51.980;6.722;2022-07-23T01:02:14;6.90;;;4.65;;
64795;SDS011;51229;51.980;6.722;2022-07-23T01:04:40;9.50;;;4.75;;
64795;SDS011;51229;51.980;6.722;2022-07-23T01:07:06;6.57;;;4.55;;
64795;SDS011;51229;51.980;6.722;2022-07-23T01:09:32;6.22;;;4.22;;
64795;SDS011;51229;51.980;6.722;2022-07-23T01:11:58;6.22;;;4.65;;
64795;SDS011;51229;51.980;6.722;2022-07-23T01:14:24;6.55;;;4.43;;
64795;SDS011;51229;51.980;6.722;2022-07-23T01:16:50;7.45;;;4.30;;
64795;SDS011;51229;51.980;6.722;2022-07-23T01:19:16;6.60;;;4.28;;
64795;SDS011;51229;51.980;6.722;2022-07-23T01:21:51;10.57;;;5.05;;
64795;SDS011;51229;51.980;6.722;2022-07-23T01:24:20;7.03;;;4.70;;
64795;SDS011;51229;51.980;6.722;2022-07-23T01:27:11;5.80;;;4.53;;
64795;SDS011;51229;51.980;6.722;2022-07-23T01:29:38;6.63;;;4.90;;
64795;SDS011;51229;51.980;6.722;2022-07-23T01:32:10;6.93;;;4.47;;
64795;SDS011;51229;51.980;6.722;2022-07-23T01:34:35;7.65;;;4.30;;
64795;SDS011;51229;51.980;6.722;2022-07-23T01:37:01;5.93;;;4.78;;
64795;SDS011;51229;51.980;6.722;2022-07-23T01:39:27;6.18;;;4.75;;
64795;SDS011;51229;51.980;6.722;2022-07-23T01:41:53;7.78;;;4.72;;
64795;SDS011;51229;51.980;6.722;2022-07-23T01:44:20;7.00;;;4.85;;
64795;SDS011;51229;51.980;6.722;2022-07-23T01:46:46;7.10;;;4.63;;
64795;SDS011;51229;51.980;6.722;2022-07-23T01:49:11;8.15;;;5.38;;
64795;SDS011;51229;51.980;6.722;2022-07-23T01:52:03;7.03;;;4.75;;
64795;SDS011;51229;51.980;6.722;2022-07-23T01:54:39;7.07;;;4.88;;
64795;SDS011;51229;51.980;6.722;2022-07-23T01:57:06;7.40;;;4.93;;
64795;SDS011;51229;51.980;6.722;2022-07-23T01:59:32;6.20;;;4.88;;
64795;SDS011;51229;51.980;6.722;2022-07-23T02:01:59;6.65;;;4.80;;
64795;SDS011;51229;51.980;6.722;2022-07-23T02:04:26;6.70;;;4.38;;
64795;SDS011;51229;51.980;6.722;2022-07-23T02:06:53;6.78;;;5.13;;
64795;SDS011;51229;51.980;6.722;2022-07-23T02:09:19;7.60;;;4.80;;
64795;SDS011;51229;51.980;6.722;2022-07-23T02:11:46;6.97;;;4.90;;
64795;SDS011;51229;51.980;6.722;2022-07-23T02:14:11;6.28;;;4.65;;
64795;SDS011;51229;51.980;6.722;2022-07-23T02:16:37;7.35;;;5.20;;
64795;SDS011;51229;51.980;6.722;2022-07-23T02:19:03;7.10;;;4.97;;
64795;SDS011;51229;51.980;6.722;2022-07-23T02:21:29;7.28;;;4.85;;
64795;SDS011;51229;51.980;6.722;2022-07-23T02:23:55;6.47;;;4.32;;
64795;SDS011;51229;51.980;6.722;2022-07-23T02:26:21;7.60;;;5.13;;
64795;SDS011;51229;51.980;6.722;2022-07-23T02:28:49;7.10;;;4.70;;
64795;SDS011;51229;51.980;6.722;2022-07-23T02:31:16;7.38;;;5.25;;
64795;SDS011;51229;51.980;6.722;2022-07-23T02:33:41;8.85;;;5.70;;
64795;SDS011;51229;51.980;6.722;2022-07-23T02:36:07;7.72;;;5.00;;
64795;SDS011;51229;51.980;6.722;2022-07-23T02:38:33;9.02;;;5.40;;
64795;SDS011;51229;51.980;6.722;2022-07-23T02:40:59;6.78;;;5.22;;
64795;SDS011;51229;51.980;6.722;2022-07-23T02:43:25;8.80;;;5.70;;
64795;SDS011;51229;51.980;6.722;2022-07-23T02:45:51;10.60;;;5.80;;
64795;SDS011;51229;51.980;6.722;2022-07-23T02:48:17;6.65;;;5.25;;
64795;SDS011;51229;51.980;6.722;2022-07-23T02:50:45;6.70;;;5.05;;
64795;SDS011;51229;51.980;6.722;2022-07-23T02:53:13;8.40;;;5.75;;
64795;SDS011;51229;51.980;6.722;2022-07-23T02:55:41;8.95;;;5.53;;
64795;SDS011;51229;51.980;6.722;2022-07-23T02:58:07;8.07;;;5.65;;
64795;SDS011;51229;51.980;6.722;2022-07-23T03:00:32;7.43;;;5.53;;
64795;SDS011;51229;51.980;6.722;2022-07-23T03:02:58;8.70;;;5.38;;
64795;SDS011;51229;51.980;6.722;2022-07-23T03:05:24;7.40;;;5.00;;
64795;SDS011;51229;51.980;6.722;2022-07-23T03:07:50;8.48;;;4.93;;
64795;SDS011;51229;51.980;6.722;2022-07-23T03:10:16;7.60;;;5.05;;
64795;SDS011;51229;51.980;6.722;2022-07-23T03:12:43;6.47;;;4.75;;
64795;SDS011;51229;51.980;6.722;2022-07-23T03:15:09;7.63;;;5.50;;
64795;SDS011;51229;51.980;6.722;2022-07-23T03:17:34;7.38;;;5.50;;
64795;SDS011;51229;51.980;6.722;2022-07-23T03:20:01;7.63;;;5.68;;
64795;SDS011;51229;51.980;6.722;2022-07-23T03:22:27;8.82;;;5.85;;
64795;SDS011;51229;51.980;6.722;2022-07-23T03:24:52;7.82;;;5.65;;
64795;SDS011;51229;51.980;6.722;2022-07-23T03:27:32;7.35;;;5.20;;
64795;SDS011;51229;51.980;6.722;2022-07-23T03:29:58;7.03;;;5.22;;
64795;SDS011;51229;51.980;6.722;2022-07-23T03:32:24;7.13;;;5.18;;
64795;SDS011;51229;51.980;6.722;2022-07-23T03:34:51;8.77;;;5.50;;
64795;SDS011;51229;51.980;6.722;2022-07-23T03:37:17;7.03;;;5.47;;
64795;SDS011;51229;51.980;6.722;2022-07-23T03:39:44;8.05;;;5.97;;
64795;SDS011;51229;51.980;6.722;2022-07-23T03:42:10;7.90;;;6.20;;
64795;SDS011;51229;51.980;6.722;2022-07-23T03:44:36;7.10;;;5.45;;
64795;SDS011;51229;51.980;6.722;2022-07-23T03:47:03;7.93;;;5.72;;
64795;SDS011;51229;51.980;6.722;2022-07-23T03:49:29;7.32;;;5.55;;
64795;SDS011;51229;51.980;6.722;2022-07-23T03:51:55;13.32;;;5.68;;
64795;SDS011;51229;51.980;6.722;2022-07-23T03:54:21;8.68;;;5.63;;
64795;SDS011;51229;51.980;6.722;2022-07-23T03:56:47;8.18;;;5.75;;
64795;SDS011;51229;51.980;6.722;2022-07-23T03:59:13;7.35;;;5.05;;
64795;SDS011;51229;51.980;6.722;2022-07-23T04:01:39;6.25;;;4.97;;
64795;SDS011;51229;51.980;6.722;2022-07-23T04:04:05;7.75;;;5.53;;
64795;SDS011;51229;51.980;6.722;2022-07-23T04:06:31;8.00;;;5.72;;
64795;SDS011;51229;51.980;6.722;2022-07-23T04:08:58;7.88;;;5.50;;
64795;SDS011;51229;51.980;6.722;2022-07-23T04:11:24;7.68;;;5.60;;
64795;SDS011;51229;51.980;6.722;2022-07-23T04:13:49;6.60;;;5.32;;
64795;SDS011;51229;51.980;6.722;2022-07-23T04:16:15;7.95;;;5.95;;
64795;SDS011;51229;51.980;6.722;2022-07-23T04:18:41;6.88;;;5.90;;
64795;SDS011;51229;51.980;6.722;2022-07-23T04:21:15;7.13;;;5.55;;
64795;SDS011;51229;51.980;6.722;2022-07-23T04:23:40;8.63;;;5.95;;
64795;SDS011;51229;51.980;6.722;2022-07-23T04:26:06;8.02;;;5.63;;
64795;SDS011;51229;51.980;6.722;2022-07-23T04:28:33;6.90;;;5.93;;
64795;SDS011;51229;51.980;6.722;2022-07-23T04:31:01;8.15;;;5.50;;
64795;SDS011;51229;51.980;6.722;2022-07-23T04:33:28;8.13;;;6.07;;
64795;SDS011;51229;51.980;6.722;2022-07-23T04:35:56;6.97;;;5.50;;
64795;SDS011;51229;51.980;6.722;2022-07-23T04:38:22;8.45;;;5.93;;
64795;SDS011;51229;51.980;6.722;2022-07-23T04:40:50;8.00;;;5.35;;
64795;SDS011;51229;51.980;6.722;2022-07-23T04:43:16;8.45;;;6.10;;
64795;SDS011;51229;51.980;6.722;2022-07-23T04:45:45;6.53;;;5.68;;
64795;SDS011;51229;51.980;6.722;2022-07-23T04:48:11;8.55;;;6.22;;
64795;SDS011;51229;51.980;6.722;2022-07-23T04:50:37;8.93;;;6.72;;
64795;SDS011;51229;51.980;6.722;2022-07-23T04:53:03;8.50;;;5.75;;
64795;SDS011;51229;51.980;6.722;2022-07-23T04:55:29;8.45;;;6.15;;
64795;SDS011;51229;51.980;6.722;2022-07-23T04:57:55;7.72;;;6.13;;
64795;SDS011;51229;51.980;6.722;2022-07-23T05:00:21;7.15;;;6.15;;
64795;SDS011;51229;51.980;6.722;2022-07-23T05:02:47;9.10;;;6.25;;
64795;SDS011;51229;51.980;6.722;2022-07-23T05:05:12;7.70;;;5.60;;
64795;SDS011;51229;51.980;6.722;2022-07-23T05:07:40;9.48;;;6.65;;
64795;SDS011;51229;51.980;6.722;2022-07-23T05:10:06;10.05;;;6.90;;
64795;SDS011;51229;51.980;6.722;2022-07-23T05:12:32;11.18;;;6.03;;
64795;SDS011;51229;51.980;6.722;2022-07-23T05:14:58;8.45;;;6.40;;
64795;SDS011;51229;51.980;6.722;2022-07-23T05:17:24;8.23;;;6.10;;
64795;SDS011;51229;51.980;6.722;2022-07-23T05:19:51;8.50;;;5.95;;
64795;SDS011;51229;51.980;6.722;2022-07-23T05:22:16;10.63;;;6.20;;
64795;SDS011;51229;51.980;6.722;2022-07-23T05:24:42;9.20;;;6.20;;
64795;SDS011;51229;51.980;6.722;2022-07-23T05:27:08;8.52;;;6.50;;
64795;SDS011;51229;51.980;6.722;2022-07-23T05:29:34;8.45;;;6.90;;
64795;SDS011;51229;51.980;6.722;2022-07-23T05:32:00;9.35;;;6.90;;
64795;SDS011;51229;51.980;6.722;2022-07-23T05:34:28;7.07;;;4.75;;
64795;SDS011;51229;51.980;6.722;2022-07-23T05:36:55;8.07;;;6.38;;
64795;SDS011;51229;51.980;6.722;2022-07-23T05:39:21;9.43;;;6.63;;
64795;SDS011;51229;51.980;6.722;2022-07-23T05:41:47;9.43;;;6.57;;
64795;SDS011;51229;51.980;6.722;2022-07-23T05:44:13;8.27;;;6.38;;
64795;SDS011;51229;51.980;6.722;2022-07-23T05:46:41;8.15;;;6.43;;
64795;SDS011;51229;51.980;6.722;2022-07-23T05:49:10;9.55;;;6.80;;
64795;SDS011;51229;51.980;6.722;2022-07-23T05:51:55;8.93;;;6.18;;
64795;SDS011;51229;51.980;6.722;2022-07-23T05:54:33;8.80;;;5.63;;
64795;SDS011;51229;51.980;6.722;2022-07-23T05:57:00;10.80;;;6.80;;
64795;SDS011;51229;51.980;6.722;2022-07-23T05:59:26;10.93;;;6.50;;
64795;SDS011;51229;51.980;6.722;2022-07-23T06:01:52;10.93;;;6.30;;
64795;SDS011;51229;51.980;6.722;2022-07-23T06:04:17;7.88;;;6.03;;
64795;SDS011;51229;51.980;6.722;2022-07-23T06:06:54;9.00;;;5.38;;
64795;SDS011;51229;51.980;6.722;2022-07-23T06:09:20;8.10;;;5.53;;
64795;SDS011;51229;51.980;6.722;2022-07-23T06:11:46;8.45;;;5.88;;
64795;SDS011;51229;51.980;6.722;2022-07-23T06:14:12;8.18;;;6.38;;
64795;SDS011;51229;51.980;6.722;2022-07-23T06:16:49;8.32;;;6.63;;
64795;SDS011;51229;51.980;6.722;2022-07-23T06:19:14;8.82;;;6.07;;
64795;SDS011;51229;51.980;6.722;2022-07-23T06:21:40;10.00;;;6.13;;
64795;SDS011;51229;51.980;6.722;2022-07-23T06:24:06;9.25;;;5.57;;
64795;SDS011;51229;51.980;6.722;2022-07-23T06:26:32;7.30;;;4.97;;
64795;SDS011;51229;51.980;6.722;2022-07-23T06:28:59;8.20;;;5.57;;
64795;SDS011;51229;51.980;6.722;2022-07-23T06:31:25;10.50;;;5.47;;
64795;SDS011;51229;51.980;6.722;2022-07-23T06:33:51;7.55;;;5.72;;
64795;SDS011;51229;51.980;6.722;2022-07-23T06:36:17;7.97;;;5.47;;
64795;SDS011;51229;51.980;6.722;2022-07-23T06:38:42;10.48;;;5.72;;
64795;SDS011;51229;51.980;6.722;2022-07-23T06:41:08;7.65;;;5.47;;
64795;SDS011;51229;51.980;6.722;2022-07-23T06:43:34;8.57;;;5.72;;
64795;SDS011;51229;51.980;6.722;2022-07-23T06:46:00;8.63;;;5.20;;
64795;SDS011;51229;51.980;6.722;2022-07-23T06:48:26;9.23;;;4.78;;
64795;SDS011;51229;51.980;6.722;2022-07-23T06:50:51;8.30;;;5.20;;
64795;SDS011;51229;51.980;6.722;2022-07-23T06:53:22;8.98;;;4.68;;
64795;SDS011;51229;51.980;6.722;2022-07-23T06:55:47;8.60;;;5.00;;
64795;SDS011;51229;51.980;6.722;2022-07-23T06:58:13;8.27;;;4.97;;
64795;SDS011;51229;51.980;6.722;2022-07-23T07:00:39;7.10;;;4.18;;
64795;SDS011;51229;51.980;6.722;2022-07-23T07:03:05;7.85;;;4.40;;
64795;SDS011;51229;51.980;6.722;2022-07-23T07:05:31;11.90;;;4.22;;
64795;SDS011;51229;51.980;6.722;2022-07-23T07:07:57;6.70;;;4.40;;
64795;SDS011;51229;51.980;6.722;2022-07-23T07:10:23;5.20;;;3.55;;
64795;SDS011;51229;51.980;6.722;2022-07-23T07:12:49;5.68;;;4.10;;
64795;SDS011;51229;51.980;6.722;2022-07-23T07:15:14;5.47;;;3.53;;
64795;SDS011;51229;51.980;6.722;2022-07-23T07:17:40;7.53;;;3.72;;
64795;SDS011;51229;51.980;6.722;2022-07-23T07:20:07;5.70;;;3.63;;
64795;SDS011;51229;51.980;6.722;2022-07-23T07:22:33;4.85;;;3.78;;
64795;SDS011;51229;51.980;6.722;2022-07-23T07:24:59;7.20;;;3.92;;
64795;SDS011;51229;51.980;6.722;2022-07-23T07:27:24;5.45;;;3.00;;
64795;SDS011;51229;51.980;6.722;2022-07-23T07:29:50;6.68;;;2.95;;
64795;SDS011;51229;51.980;6.722;2022-07-23T07:32:16;7.85;;;3.20;;
64795;SDS011;51229;51.980;6.722;2022-07-23T07:34:42;5.88;;;2.65;;
64795;SDS011;51229;51.980;6.722;2022-07-23T07:37:07;5.97;;;2.75;;
64795;SDS011;51229;51.980;6.722;2022-07-23T07:39:33;6.97;;;2.75;;
64795;SDS011;51229;51.980;6.722;2022-07-23T07:41:59;3.65;;;2.28;;
64795;SDS011;51229;51.980;6.722;2022-07-23T07:44:24;6.88;;;2.90;;
64795;SDS011;51229;51.980;6.722;2022-07-23T07:46:50;6.07;;;3.00;;
64795;SDS011;51229;51.980;6.722;2022-07-23T07:49:15;5.88;;;3.03;;
64795;SDS011;51229;51.980;6.722;2022-07-23T07:51:44;4.70;;;2.70;;
64795;SDS011;51229;51.980;6.722;2022-07-23T07:54:10;5.45;;;2.80;;
64795;SDS011;51229;51.980;6.722;2022-07-23T07:56:36;4.57;;;2.50;;
64795;SDS011;51229;51.980;6.722;2022-07-23T07:59:01;5.22;;;2.63;;
64795;SDS011;51229;51.980;6.722;2022-07-23T08:01:27;5.53;;;2.92;;
64795;SDS011;51229;51.980;6.722;2022-07-23T08:03:53;7.18;;;2.70;;
64795;SDS011;51229;51.980;6.722;2022-07-23T08:06:18;5.15;;;2.70;;
64795;SDS011;51229;51.980;6.722;2022-07-23T08:08:44;6.85;;;2.90;;
64795;SDS011;51229;51.980;6.722;2022-07-23T08:11:10;5.80;;;2.85;;
64795;SDS011;51229;51.980;6.722;2022-07-23T08:13:35;5.20;;;3.38;;
64795;SDS011;51229;51.980;6.722;2022-07-23T08:16:01;5.30;;;2.50;;
64795;SDS011;51229;51.980;6.722;2022-07-23T08:18:27;5.00;;;2.53;;
64795;SDS011;51229;51.980;6.722;2022-07-23T08:20:52;4.60;;;2.10;;
64795;SDS011;51229;51.980;6.722;2022-07-23T08:23:18;4.07;;;2.22;;
64795;SDS011;51229;51.980;6.722;2022-07-23T08:25:45;5.95;;;3.08;;
64795;SDS011;51229;51.980;6.722;2022-07-23T08:28:12;6.13;;;2.83;;
64795;SDS011;51229;51.980;6.722;2022-07-23T08:30:39;4.43;;;2.33;;
64795;SDS011;51229;51.980;6.722;2022-07-23T08:33:10;5.97;;;2.55;;
64795;SDS011;51229;51.980;6.722;2022-07-23T08:35:45;7.57;;;2.30;;
64795;SDS011;51229;51.980;6.722;2022-07-23T08:38:13;6.32;;;2.50;;
64795;SDS011;51229;51.980;6.722;2022-07-23T08:40:41;4.70;;;2.22;;
64795;SDS011;51229;51.980;6.722;2022-07-23T08:43:17;3.47;;;2.35;;
64795;SDS011;51229;51.980;6.722;2022-07-23T08:45:50;6.05;;;2.30;;
64795;SDS011;51229;51.980;6.722;2022-07-23T08:48:21;4.28;;;2.15;;
64795;SDS011;51229;51.980;6.722;2022-07-23T08:50:58;6.78;;;2.28;;
64795;SDS011;51229;51.980;6.722;2022-07-23T08:53:26;6.32;;;2.13;;
64795;SDS011;51229;51.980;6.722;2022-07-23T08:55:57;4.32;;;2.00;;
64795;SDS011;51229;51.980;6.722;2022-07-23T08:58:26;4.18;;;2.30;;
64795;SDS011;51229;51.980;6.722;2022-07-23T09:00:52;3.72;;;2.10;;
64795;SDS011;51229;51.980;6.722;2022-07-23T09:03:22;5.57;;;2.50;;
64795;SDS011;51229;51.980;6.722;2022-07-23T09:05:53;4.28;;;1.98;;
64795;SDS011;51229;51.980;6.722;2022-07-23T09:08:22;3.30;;;1.60;;
64795;SDS011;51229;51.980;6.722;2022-07-23T09:13:26;4.38;;;1.80;;
64795;SDS011;51229;51.980;6.722;2022-07-23T09:15:52;5.95;;;2.00;;
64795;SDS011;51229;51.980;6.722;2022-07-23T09:18:19;3.63;;;1.88;;
64795;SDS011;51229;51.980;6.722;2022-07-23T09:20:56;3.22;;;1.88;;
64795;SDS011;51229;51.980;6.722;2022-07-23T09:23:40;3.97;;;2.00;;
64795;SDS011;51229;51.980;6.722;2022-07-23T09:31:52;3.45;;;1.98;;
64795;SDS011;51229;51.980;6.722;2022-07-23T09:34:23;3.45;;;1.88;;
64795;SDS011;51229;51.980;6.722;2022-07-23T09:36:52;3.95;;;1.90;;
64795;SDS011;51229;51.980;6.722;2022-07-23T09:39:30;3.60;;;1.95;;
64795;SDS011;51229;51.980;6.722;2022-07-23T09:41:58;3.28;;;1.90;;
64795;SDS011;51229;51.980;6.722;2022-07-23T09:44:41;4.07;;;2.20;;
64795;SDS011;51229;51.980;6.722;2022-07-23T09:47:08;4.97;;;1.70;;
64795;SDS011;51229;51.980;6.722;2022-07-23T09:49:33;4.00;;;1.90;;
64795;SDS011;51229;51.980;6.722;2022-07-23T09:51:59;4.43;;;1.98;;
64795;SDS011;51229;51.980;6.722;2022-07-23T09:54:31;3.47;;;1.73;;
64795;SDS011;51229;51.980;6.722;2022-07-23T09:57:03;3.97;;;1.67;;
64795;SDS011;51229;51.980;6.722;2022-07-23T09:59:37;3.85;;;2.22;;
64795;SDS011;51229;51.980;6.722;2022-07-23T10:02:04;4.28;;;2.30;;
64795;SDS011;51229;51.980;6.722;2022-07-23T10:04:38;4.53;;;2.30;;
64795;SDS011;51229;51.980;6.722;2022-07-23T10:07:14;4.93;;;2.80;;
64795;SDS011;51229;51.980;6.722;2022-07-23T10:10:05;3.97;;;2.15;;
64795;SDS011;51229;51.980;6.722;2022-07-23T10:12:51;6.10;;;2.30;;
64795;SDS011;51229;51.980;6.722;2022-07-23T10:15:38;7.40;;;2.63;;
64795;SDS011;51229;51.980;6.722;2022-07-23T10:18:05;4.53;;;2.20;;
64795;SDS011;51229;51.980;6.722;2022-07-23T10:20:32;3.28;;;2.10;;
64795;SDS011;51229;51.980;6.722;2022-07-23T10:23:00;3.70;;;2.05;;
64795;SDS011;51229;51.980;6.722;2022-07-23T10:25:37;4.00;;;1.80;;
64795;SDS011;51229;51.980;6.722;2022-07-23T10:33:52;3.85;;;2.22;;
64795;SDS011;51229;51.980;6.722;2022-07-23T10:36:43;3.10;;;1.75;;
64795;SDS011;51229;51.980;6.722;2022-07-23T10:42:10;3.72;;;1.90;;
64795;SDS011;51229;51.980;6.722;2022-07-23T10:44:41;2.80;;;1.73;;
64795;SDS011;51229;51.980;6.722;2022-07-23T10:47:12;5.07;;;1.90;;
64795;SDS011;51229;51.980;6.722;2022-07-23T10:49:53;6.45;;;2.10;;
64795;SDS011;51229;51.980;6.722;2022-07-23T10:52:23;3.85;;;1.80;;
64795;SDS011;51229;51.980;6.722;2022-07-23T10:54:51;4.27;;;1.83;;
64795;SDS011;51229;51.980;6.722;2022-07-23T10:57:23;4.28;;;1.92;;
64795;SDS011;51229;51.980;6.722;2022-07-23T11:02:38;5.15;;;2.30;;
64795;SDS011;51229;51.980;6.722;2022-07-23T11:05:06;3.40;;;1.85;;
64795;SDS011;51229;51.980;6.722;2022-07-23T11:07:34;3.40;;;2.28;;
64795;SDS011;51229;51.980;6.722;2022-07-23T11:10:00;5.15;;;2.90;;
64795;SDS011;51229;51.980;6.722;2022-07-23T11:17:27;5.43;;;2.50;;
64795;SDS011;51229;51.980;6.722;2022-07-23T11:25:10;3.70;;;2.00;;
64795;SDS011;51229;51.980;6.722;2022-07-23T11:27:37;4.30;;;2.08;;
64795;SDS011;51229;51.980;6.722;2022-07-23T11:30:07;4.93;;;2.20;;
64795;SDS011;51229;51.980;6.722;2022-07-23T11:32:36;3.83;;;1.98;;
64795;SDS011;51229;51.980;6.722;2022-07-23T11:35:27;3.95;;;2.17;;
64795;SDS011;51229;51.980;6.722;2022-07-23T11:37:54;5.75;;;2.17;;
64795;SDS011;51229;51.980;6.722;2022-07-23T11:40:27;4.53;;;2.28;;
64795;SDS011;51229;51.980;6.722;2022-07-23T11:45:19;5.05;;;2.40;;
64795;SDS011;51229;51.980;6.722;2022-07-23T11:47:45;4.70;;;2.00;;
64795;SDS011;51229;51.980;6.722;2022-07-23T11:50:10;3.15;;;2.00;;
64795;SDS011;51229;51.980;6.722;2022-07-23T11:52:36;3.92;;;2.20;;
64795;SDS011;51229;51.980;6.722;2022-07-23T11:55:08;4.57;;;2.33;;
64795;SDS011;51229;51.980;6.722;2022-07-23T11:57:36;5.18;;;2.10;;
64795;SDS011;51229;51.980;6.722;2022-07-23T12:02:48;3.30;;;2.30;;
64795;SDS011;51229;51.980;6.722;2022-07-23T12:05:18;3.92;;;2.03;;
64795;SDS011;51229;51.980;6.722;2022-07-23T12:07:46;3.10;;;2.00;;
64795;SDS011;51229;51.980;6.722;2022-07-23T12:12:49;4.57;;;2.10;;
64795;SDS011;51229;51.980;6.722;2022-07-23T12:15:23;4.53;;;2.20;;
64795;SDS011;51229;51.980;6.722;2022-07-23T12:17:52;4.45;;;1.92;;
64795;SDS011;51229;51.980;6.722;2022-07-23T12:20:21;5.32;;;2.10;;
64795;SDS011;51229;51.980;6.722;2022-07-23T12:22:49;4.95;;;2.35;;
64795;SDS011;51229;51.980;6.722;2022-07-23T12:25:17;3.60;;;2.15;;
64795;SDS011;51229;51.980;6.722;2022-07-23T12:27:45;3.30;;;2.17;;
64795;SDS011;51229;51.980;6.722;2022-07-23T12:30:23;5.97;;;2.22;;
64795;SDS011;51229;51.980;6.722;2022-07-23T12:32:55;4.07;;;2.10;;
64795;SDS011;51229;51.980;6.722;2022-07-23T12:35:22;3.20;;;1.90;;
64795;SDS011;51229;51.980;6.722;2022-07-23T12:37:49;5.90;;;2.30;;
64795;SDS011;51229;51.980;6.722;2022-07-23T12:40:34;5.30;;;2.50;;
64795;SDS011;51229;51.980;6.722;2022-07-23T12:43:12;3.35;;;2.10;;
64795;SDS011;51229;51.980;6.722;2022-07-23T12:45:55;5.65;;;2.10;;
64795;SDS011;51229;51.980;6.722;2022-07-23T12:48:35;5.88;;;2.42;;
64795;SDS011;51229;51.980;6.722;2022-07-23T12:51:16;5.53;;;2.22;;
64795;SDS011;51229;51.980;6.722;2022-07-23T12:53:47;3.78;;;2.20;;
64795;SDS011;51229;51.980;6.722;2022-07-23T12:56:15;5.68;;;2.47;;
64795;SDS011;51229;51.980;6.722;2022-07-23T13:01:33;3.88;;;2.08;;
64795;SDS011;51229;51.980;6.722;2022-07-23T13:04:01;4.05;;;2.30;;
64795;SDS011;51229;51.980;6.722;2022-07-23T13:06:31;4.05;;;2.33;;
64795;SDS011;51229;51.980;6.722;2022-07-23T13:09:02;3.60;;;1.92;;
64795;SDS011;51229;51.980;6.722;2022-07-23T13:11:29;4.28;;;1.95;;
64795;SDS011;51229;51.980;6.722;2022-07-23T13:13:55;3.42;;;2.10;;
64795;SDS011;51229;51.980;6.722;2022-07-23T13:16:21;3.88;;;2.10;;
64795;SDS011;51229;51.980;6.722;2022-07-23T13:18:47;5.15;;;1.95;;
64795;SDS011;51229;51.980;6.722;2022-07-23T13:21:13;4.53;;;2.10;;
64795;SDS011;51229;51.980;6.722;2022-07-23T13:23:38;3.78;;;2.03;;
64795;SDS011;51229;51.980;6.722;2022-07-23T13:26:04;7.65;;;2.60;;
64795;SDS011;51229;51.980;6.722;2022-07-23T13:28:30;4.00;;;2.53;;
64795;SDS011;51229;51.980;6.722;2022-07-23T13:30:56;3.97;;;2.20;;
64795;SDS011;51229;51.980;6.722;2022-07-23T13:33:22;6.28;;;2.47;;
64795;SDS011;51229;51.980;6.722;2022-07-23T13:35:49;3.65;;;2.17;;
64795;SDS011;51229;51.980;6.722;2022-07-23T13:38:16;4.10;;;2.08;;
64795;SDS011;51229;51.980;6.722;2022-07-23T13:40:44;4.93;;;2.40;;
64795;SDS011;51229;51.980;6.722;2022-07-23T13:43:12;3.80;;;2.30;;
64795;SDS011;51229;51.980;6.722;2022-07-23T13:45:39;5.65;;;2.35;;
64795;SDS011;51229;51.980;6.722;2022-07-23T13:48:07;5.38;;;2.30;;
64795;SDS011;51229;51.980;6.722;2022-07-23T13:50:34;5.07;;;2.17;;
64795;SDS011;51229;51.980;6.722;2022-07-23T13:53:23;5.38;;;2.10;;
64795;SDS011;51229;51.980;6.722;2022-07-23T13:55:47;4.13;;;2.30;;
64795;SDS011;51229;51.980;6.722;2022-07-23T13:58:14;3.85;;;2.33;;
64795;SDS011;51229;51.980;6.722;2022-07-23T14:00:41;4.22;;;2.45;;
64795;SDS011;51229;51.980;6.722;2022-07-23T14:03:09;3.33;;;1.90;;
64795;SDS011;51229;51.980;6.722;2022-07-23T14:05:35;4.53;;;2.30;;
64795;SDS011;51229;51.980;6.722;2022-07-23T14:08:01;3.85;;;2.00;;
64795;SDS011;51229;51.980;6.722;2022-07-23T14:10:27;4.90;;;2.33;;
64795;SDS011;51229;51.980;6.722;2022-07-23T14:12:53;5.22;;;2.28;;
64795;SDS011;51229;51.980;6.722;2022-07-23T14:15:21;4.38;;;2.10;;
64795;SDS011;51229;51.980;6.722;2022-07-23T14:17:48;5.18;;;2.63;;
64795;SDS011;51229;51.980;6.722;2022-07-23T14:20:14;3.35;;;2.20;;
64795;SDS011;51229;51.980;6.722;2022-07-23T14:22:40;5.05;;;2.53;;
64795;SDS011;51229;51.980;6.722;2022-07-23T14:25:06;3.83;;;2.22;;
64795;SDS011;51229;51.980;6.722;2022-07-23T14:27:33;3.90;;;2.40;;
64795;SDS011;51229;51.980;6.722;2022-07-23T14:29:59;3.92;;;2.20;;
64795;SDS011;51229;51.980;6.722;2022-07-23T14:32:26;3.97;;;2.30;;
64795;SDS011;51229;51.980;6.722;2022-07-23T14:34:52;4.20;;;2.30;;
64795;SDS011;51229;51.980;6.722;2022-07-23T14:37:17;5.72;;;2.22;;
64795;SDS011;51229;51.980;6.722;2022-07-23T14:39:43;5.30;;;2.38;;
64795;SDS011;51229;51.980;6.722;2022-07-23T14:42:09;5.75;;;2.38;;
64795;SDS011;51229;51.980;6.722;2022-07-23T14:44:36;4.13;;;2.20;;
64795;SDS011;51229;51.980;6.722;2022-07-23T14:47:02;4.00;;;2.30;;
64795;SDS011;51229;51.980;6.722;2022-07-23T14:49:30;4.28;;;2.80;;
64795;SDS011;51229;51.980;6.722;2022-07-23T14:51:56;5.70;;;2.40;;
64795;SDS011;51229;51.980;6.722;2022-07-23T14:54:22;4.00;;;2.40;;
64795;SDS011;51229;51.980;6.722;2022-07-23T14:56:51;4.38;;;2.67;;
64795;SDS011;51229;51.980;6.722;2022-07-23T14:59:16;4.28;;;2.40;;
64795;SDS011;51229;51.980;6.722;2022-07-23T15:01:42;6.72;;;3.33;;
64795;SDS011;51229;51.980;6.722;2022-07-23T15:04:08;5.13;;;3.00;;
64795;SDS011;51229;51.980;6.722;2022-07-23T15:06:34;4.53;;;2.50;;
64795;SDS011;51229;51.980;6.722;2022-07-23T15:08:59;5.57;;;2.30;;
64795;SDS011;51229;51.980;6.722;2022-07-23T15:11:26;4.03;;;2.60;;
64795;SDS011;51229;51.980;6.722;2022-07-23T15:13:54;5.93;;;2.80;;
64795;SDS011;51229;51.980;6.722;2022-07-23T15:16:20;5.28;;;2.60;;
64795;SDS011;51229;51.980;6.722;2022-07-23T15:18:45;6.40;;;2.88;;
64795;SDS011;51229;51.980;6.722;2022-07-23T15:21:11;5.00;;;2.60;;
64795;SDS011;51229;51.980;6.722;2022-07-23T15:23:37;6.40;;;2.78;;
64795;SDS011;51229;51.980;6.722;2022-07-23T15:26:05;4.18;;;2.65;;
64795;SDS011;51229;51.980;6.722;2022-07-23T15:28:31;4.78;;;2.50;;
64795;SDS011;51229;51.980;6.722;2022-07-23T15:30:57;4.95;;;2.55;;
64795;SDS011;51229;51.980;6.722;2022-07-23T15:33:23;5.43;;;3.10;;